Terminal Aerodrome Forecast
Issued by NWS

Home | Current Version | Previous Version | Text Only | Print | Product List | Glossary On
Versions: 1 2 3 4 5 6 7 8 9 10 11 12 13 14 15
532
FTUS43 KBIS 012333
TAFMOT
TAF
KMOT 012333Z 0200/0224 23005KT P6SM FEW250
     FM020800 24006KT P6SM VCSH BKN120
     FM021300 29006KT P6SM SCT250
     FM021700 05005KT P6SM FEW250=

USA.gov is the U.S. government's official web portal to all federal, state and local government web resources and services.